createdAt,value
2022-10-14T00:00:07.350Z,9.71
2022-10-14T00:01:07.283Z,9.73
2022-10-14T00:02:07.313Z,9.70
2022-10-14T00:03:07.161Z,9.73
2022-10-14T00:04:07.094Z,9.62
2022-10-14T00:05:07.025Z,9.58
2022-10-14T00:06:06.961Z,9.56
2022-10-14T00:07:06.897Z,9.55
2022-10-14T00:08:06.831Z,9.55
2022-10-14T00:09:06.765Z,9.52
2022-10-14T00:10:06.700Z,9.49
2022-10-14T00:11:06.637Z,9.52
2022-10-14T00:12:06.577Z,9.53
2022-10-14T00:13:06.508Z,9.52
2022-10-14T00:14:06.442Z,9.56
2022-10-14T00:15:06.384Z,9.55
2022-10-14T00:16:06.314Z,9.62
2022-10-14T00:17:06.249Z,9.53
2022-10-14T00:18:06.181Z,9.50
2022-10-14T00:19:06.121Z,9.48
2022-10-14T00:20:06.056Z,9.49
2022-10-14T00:21:05.998Z,9.45
2022-10-14T00:22:05.926Z,9.44
2022-10-14T00:23:05.887Z,9.41
2022-10-14T00:24:05.833Z,9.42
2022-10-14T00:25:05.802Z,9.45
2022-10-14T00:26:05.672Z,9.32
2022-10-14T00:27:05.616Z,9.44
2022-10-14T00:28:05.550Z,9.35
2022-10-14T00:29:05.479Z,9.34
2022-10-14T00:30:05.442Z,9.34
2022-10-14T00:31:05.342Z,9.34
2022-10-14T00:32:05.315Z,9.16
2022-10-14T00:33:05.219Z,9.23
2022-10-14T00:34:05.146Z,9.17
2022-10-14T00:35:05.086Z,9.03
2022-10-14T00:36:05.021Z,9.01
2022-10-14T00:37:04.956Z,9.01
2022-10-14T00:38:04.886Z,8.97
2022-10-14T00:39:04.829Z,8.94
2022-10-14T00:40:04.780Z,8.94
2022-10-14T00:41:04.697Z,8.96
2022-10-14T00:42:04.632Z,8.96
2022-10-14T00:43:04.640Z,8.94
2022-10-14T00:44:04.500Z,8.94
2022-10-14T00:45:04.444Z,8.96
2022-10-14T00:46:04.374Z,8.91
2022-10-14T00:47:04.303Z,8.86
2022-10-14T00:48:04.242Z,9.00
2022-10-14T00:49:04.174Z,8.86
2022-10-14T00:50:04.113Z,8.98
2022-10-14T00:51:04.050Z,8.98
2022-10-14T00:52:03.983Z,8.97
2022-10-14T00:53:03.912Z,8.97
2022-10-14T00:54:03.853Z,9.13
2022-10-14T00:55:03.788Z,9.01
2022-10-14T00:56:03.723Z,9.16
2022-10-14T00:57:03.682Z,9.22
2022-10-14T00:58:03.594Z,9.20
2022-10-14T00:59:03.525Z,9.15
2022-10-14T01:00:03.460Z,9.27
2022-10-14T01:01:03.420Z,9.37
2022-10-14T01:02:03.404Z,9.30
2022-10-14T01:03:03.267Z,9.40
2022-10-14T01:04:03.219Z,9.40
2022-10-14T01:05:03.141Z,9.45
2022-10-14T01:06:03.078Z,9.37
2022-10-14T01:07:03.004Z,9.41
2022-10-14T01:08:02.944Z,9.42
2022-10-14T01:09:02.875Z,9.45
2022-10-14T01:10:02.812Z,9.49
2022-10-14T01:11:02.748Z,9.58
2022-10-14T01:12:26.805Z,9.56
2022-10-14T01:13:02.687Z,9.59
2022-10-14T01:14:02.562Z,9.62
2022-10-14T01:15:02.526Z,9.55
2022-10-14T01:16:02.425Z,9.56
2022-10-14T01:17:02.358Z,9.62
2022-10-14T01:18:02.294Z,9.60
2022-10-14T01:19:02.229Z,9.60
2022-10-14T01:20:02.166Z,9.52
2022-10-14T01:21:02.097Z,9.52
2022-10-14T01:22:02.035Z,9.42
2022-10-14T01:23:01.967Z,9.38
2022-10-14T01:24:01.941Z,9.37
2022-10-14T01:25:01.839Z,9.34
2022-10-14T01:26:01.784Z,9.37
2022-10-14T01:27:01.712Z,9.32
2022-10-14T01:28:01.646Z,9.20
2022-10-14T01:29:01.624Z,9.20
2022-10-14T01:30:01.533Z,9.17
2022-10-14T01:31:01.448Z,9.13
2022-10-14T01:32:01.389Z,9.06
2022-10-14T01:33:01.317Z,9.01
2022-10-14T01:34:01.260Z,9.04
2022-10-14T01:35:01.194Z,9.08
2022-10-14T01:36:01.125Z,8.98
2022-10-14T01:37:01.060Z,8.94
2022-10-14T01:38:00.998Z,9.00
2022-10-14T01:39:00.944Z,8.94
2022-10-14T01:40:00.872Z,8.86
2022-10-14T01:41:00.804Z,8.83
2022-10-14T01:42:00.737Z,8.83
2022-10-14T01:43:00.681Z,8.83
2022-10-14T01:44:00.610Z,8.82
2022-10-14T01:45:00.566Z,8.73
2022-10-14T01:46:00.481Z,8.83
2022-10-14T01:47:00.420Z,8.80
2022-10-14T01:48:00.350Z,8.65
2022-10-14T01:49:00.279Z,8.76
2022-10-14T01:50:00.220Z,8.78
2022-10-14T01:51:00.153Z,8.73
2022-10-14T01:52:00.088Z,8.75
2022-10-14T01:53:00.026Z,8.73
2022-10-14T01:53:59.958Z,8.70
2022-10-14T01:54:59.900Z,8.68
2022-10-14T01:55:59.838Z,8.58
2022-10-14T01:56:59.771Z,8.58
2022-10-14T01:57:59.703Z,8.55
2022-10-14T01:58:59.633Z,8.49
2022-10-14T01:59:59.569Z,8.54
2022-10-14T02:00:59.506Z,8.46
2022-10-14T02:01:59.495Z,8.46
2022-10-14T02:02:59.376Z,8.40
2022-10-14T02:03:59.307Z,8.43
2022-10-14T02:04:59.245Z,8.36
2022-10-14T02:05:59.180Z,8.34
2022-10-14T02:06:59.112Z,8.31
2022-10-14T02:07:59.047Z,8.32
2022-10-14T02:08:58.979Z,8.29
2022-10-14T02:09:58.925Z,8.34
2022-10-14T02:11:02.149Z,8.34
2022-10-14T02:11:58.792Z,8.28
2022-10-14T02:12:58.721Z,8.28
2022-10-14T02:13:58.660Z,8.27
2022-10-14T02:14:58.597Z,8.21
2022-10-14T02:15:58.528Z,8.28
2022-10-14T02:16:58.459Z,8.27
2022-10-14T02:17:58.397Z,8.14
2022-10-14T02:18:58.339Z,8.22
2022-10-14T02:19:58.266Z,8.18
2022-10-14T02:20:58.204Z,8.25
2022-10-14T02:21:58.139Z,8.17
2022-10-14T02:22:58.068Z,8.22
2022-10-14T02:23:58.012Z,8.14
2022-10-14T02:24:57.936Z,8.06
2022-10-14T02:25:57.876Z,8.04
2022-10-14T02:26:57.806Z,8.06
2022-10-14T02:27:57.745Z,8.09
2022-10-14T02:28:57.746Z,8.13
2022-10-14T02:29:57.613Z,8.09
2022-10-14T02:30:57.545Z,8.18
2022-10-14T02:31:57.483Z,8.07
2022-10-14T02:32:57.423Z,8.03
2022-10-14T02:33:57.352Z,8.00
2022-10-14T02:34:57.283Z,8.21
2022-10-14T02:35:57.221Z,8.10
2022-10-14T02:36:57.161Z,8.07
2022-10-14T02:37:57.090Z,8.10
2022-10-14T02:38:57.021Z,8.12
2022-10-14T02:39:56.963Z,8.07
2022-10-14T02:40:56.899Z,8.20
2022-10-14T02:41:56.831Z,8.21
2022-10-14T02:42:56.766Z,8.17
2022-10-14T02:43:56.697Z,8.21
2022-10-14T02:44:56.644Z,8.20
2022-10-14T02:45:56.578Z,8.18
2022-10-14T02:46:56.504Z,8.20
2022-10-14T02:47:56.441Z,8.28
2022-10-14T02:48:56.370Z,8.31
2022-10-14T02:49:56.314Z,8.32
2022-10-14T02:50:56.242Z,8.36
2022-10-14T02:51:56.173Z,8.40
2022-10-14T02:52:56.105Z,8.43
2022-10-14T02:53:56.045Z,8.43
2022-10-14T02:54:56.013Z,8.46
2022-10-14T02:55:55.919Z,8.46
2022-10-14T02:56:55.845Z,8.63
2022-10-14T02:57:55.786Z,8.67
2022-10-14T02:58:55.722Z,8.83
2022-10-14T02:59:55.658Z,8.91
2022-10-14T03:00:55.587Z,9.00
2022-10-14T03:01:55.575Z,9.12
2022-10-14T03:02:55.457Z,9.15
2022-10-14T03:03:55.388Z,9.19
2022-10-14T03:04:55.329Z,9.16
2022-10-14T03:05:55.260Z,9.20
2022-10-14T03:06:55.191Z,9.15
2022-10-14T03:07:55.143Z,9.03
2022-10-14T03:08:55.061Z,9.03
2022-10-14T03:09:54.999Z,9.01
2022-10-14T03:10:54.930Z,8.98
2022-10-14T03:11:54.867Z,8.98
2022-10-14T03:12:54.806Z,8.96
2022-10-14T03:13:54.742Z,8.89
2022-10-14T03:14:54.680Z,8.86
2022-10-14T03:15:54.609Z,8.97
2022-10-14T03:16:54.544Z,8.88
2022-10-14T03:17:54.475Z,8.93
2022-10-14T03:18:54.408Z,8.96
2022-10-14T03:19:54.345Z,9.08
2022-10-14T03:20:54.287Z,9.03
2022-10-14T03:21:54.215Z,9.12
2022-10-14T03:22:54.151Z,9.03
2022-10-14T03:23:54.098Z,9.06
2022-10-14T03:24:54.018Z,9.03
2022-10-14T03:25:53.954Z,9.01
2022-10-14T03:26:53.887Z,8.97
2022-10-14T03:27:53.827Z,9.10
2022-10-14T03:28:53.791Z,9.10
2022-10-14T03:29:53.697Z,9.06
2022-10-14T03:30:53.638Z,9.03
2022-10-14T03:31:53.564Z,9.20
2022-10-14T03:32:53.503Z,9.01
2022-10-14T03:33:53.432Z,9.16
2022-10-14T03:34:53.366Z,9.12
2022-10-14T03:35:53.312Z,9.04
2022-10-14T03:36:53.252Z,9.12
2022-10-14T03:37:53.177Z,9.20
2022-10-14T03:38:53.108Z,9.01
2022-10-14T03:39:53.043Z,9.13
2022-10-14T03:40:52.985Z,9.04
2022-10-14T03:41:52.913Z,9.04
2022-10-14T03:42:52.863Z,9.04
2022-10-14T03:43:52.784Z,8.98
2022-10-14T03:44:52.717Z,8.93
2022-10-14T03:45:52.652Z,8.97
2022-10-14T03:46:52.585Z,8.86
2022-10-14T03:47:52.525Z,8.83
2022-10-14T03:48:52.462Z,8.80
2022-10-14T03:49:52.399Z,8.68
2022-10-14T03:50:52.335Z,8.79
2022-10-14T03:51:52.263Z,8.70
2022-10-14T03:52:55.652Z,8.70
2022-10-14T03:53:52.134Z,8.67
2022-10-14T03:54:52.066Z,8.70
2022-10-14T03:55:52.001Z,8.75
2022-10-14T03:56:51.938Z,8.65
2022-10-14T03:57:51.893Z,8.63
2022-10-14T03:58:51.805Z,8.67
2022-10-14T03:59:51.744Z,8.58
2022-10-14T04:00:51.676Z,8.52
2022-10-14T04:01:51.668Z,8.46
2022-10-14T04:02:51.544Z,8.47
2022-10-14T04:03:51.480Z,8.43
2022-10-14T04:04:51.418Z,8.40
2022-10-14T04:05:51.350Z,8.40
2022-10-14T04:06:51.292Z,8.32
2022-10-14T04:07:51.219Z,8.28
2022-10-14T04:08:51.156Z,8.27
2022-10-14T04:09:51.090Z,8.18
2022-10-14T04:10:51.026Z,8.07
2022-10-14T04:11:50.960Z,8.07
2022-10-14T04:12:50.894Z,8.17
2022-10-14T04:13:50.836Z,8.18
2022-10-14T04:14:50.761Z,8.21
2022-10-14T04:15:50.698Z,8.27
2022-10-14T04:16:50.631Z,8.17
2022-10-14T04:17:50.567Z,8.13
2022-10-14T04:18:50.501Z,8.18
2022-10-14T04:19:50.436Z,8.21
2022-10-14T04:20:50.368Z,8.22
2022-10-14T04:21:50.305Z,8.25
2022-10-14T04:22:50.239Z,8.34
2022-10-14T04:23:50.173Z,8.34
2022-10-14T04:24:50.113Z,8.25
2022-10-14T04:25:50.048Z,8.25
2022-10-14T04:26:49.977Z,8.29
2022-10-14T04:27:49.916Z,8.37
2022-10-14T04:28:49.876Z,8.39
2022-10-14T04:29:49.782Z,8.42
2022-10-14T04:30:49.719Z,8.37
2022-10-14T04:31:49.652Z,8.36
2022-10-14T04:32:49.589Z,8.37
2022-10-14T04:33:49.519Z,8.28
2022-10-14T04:34:49.464Z,8.34
2022-10-14T04:35:49.389Z,8.27
2022-10-14T04:36:49.320Z,8.31
2022-10-14T04:37:49.264Z,8.25
2022-10-14T04:38:49.191Z,8.20
2022-10-14T04:39:49.130Z,8.17
2022-10-14T04:40:49.058Z,8.13
2022-10-14T04:41:48.995Z,8.18
2022-10-14T04:42:48.936Z,8.25
2022-10-14T04:43:48.891Z,8.17
2022-10-14T04:44:48.798Z,8.13
2022-10-14T04:45:48.738Z,8.14
2022-10-14T04:46:48.667Z,8.04
2022-10-14T04:47:48.948Z,8.21
2022-10-14T04:48:48.537Z,8.18
2022-10-14T04:49:48.474Z,8.20
2022-10-14T04:50:48.405Z,8.18
2022-10-14T04:51:48.370Z,8.22
2022-10-14T04:52:48.273Z,8.21
2022-10-14T04:53:48.208Z,8.18
2022-10-14T04:54:48.148Z,8.22
2022-10-14T04:55:48.096Z,8.22
2022-10-14T04:56:48.017Z,8.21
2022-10-14T04:57:47.967Z,8.36
2022-10-14T04:58:47.883Z,8.37
2022-10-14T04:59:47.832Z,8.42
2022-10-14T05:00:47.753Z,8.40
2022-10-14T05:01:47.749Z,8.46
2022-10-14T05:02:47.619Z,8.47
2022-10-14T05:03:47.553Z,8.50
2022-10-14T05:04:47.489Z,8.52
2022-10-14T05:05:47.426Z,8.52
2022-10-14T05:06:47.363Z,8.49
2022-10-14T05:07:47.308Z,8.55
2022-10-14T05:08:47.231Z,8.46
2022-10-14T05:09:50.360Z,8.55
2022-10-14T05:10:47.097Z,8.60
2022-10-14T05:11:47.039Z,8.79
2022-10-14T05:12:46.975Z,8.86
2022-10-14T05:13:46.905Z,8.83
2022-10-14T05:14:46.837Z,8.82
2022-10-14T05:15:46.770Z,8.79
2022-10-14T05:16:46.712Z,8.80
2022-10-14T05:17:46.639Z,8.80
2022-10-14T05:18:46.579Z,8.91
2022-10-14T05:19:46.508Z,8.89
2022-10-14T05:20:46.459Z,8.89
2022-10-14T05:21:46.376Z,8.88
2022-10-14T05:22:46.315Z,8.89
2022-10-14T05:23:46.262Z,8.93
2022-10-14T05:24:46.182Z,8.91
2022-10-14T05:25:46.114Z,9.04
2022-10-14T05:26:46.050Z,9.16
2022-10-14T05:27:45.985Z,9.23
2022-10-14T05:28:46.003Z,9.27
2022-10-14T05:29:45.861Z,9.31
2022-10-14T05:30:45.797Z,9.23
2022-10-14T05:31:45.723Z,9.23
2022-10-14T05:32:45.662Z,9.45
2022-10-14T05:33:45.605Z,9.42
2022-10-14T05:34:45.530Z,9.42
2022-10-14T05:35:59.758Z,9.42
2022-10-14T05:36:45.406Z,9.42
2022-10-14T05:37:45.333Z,9.38
2022-10-14T05:38:45.269Z,9.35
2022-10-14T05:39:45.202Z,9.35
2022-10-14T05:40:45.140Z,9.42
2022-10-14T05:41:45.073Z,9.45
2022-10-14T05:42:45.013Z,9.40
2022-10-14T05:43:44.945Z,9.45
2022-10-14T05:44:44.880Z,9.42
2022-10-14T05:45:44.815Z,9.48
2022-10-14T05:46:44.752Z,9.42
2022-10-14T05:47:44.690Z,9.45
2022-10-14T05:48:44.616Z,9.45
2022-10-14T05:49:44.556Z,9.42
2022-10-14T05:50:44.502Z,9.41
2022-10-14T05:51:44.421Z,9.40
2022-10-14T05:52:44.357Z,9.45
2022-10-14T05:53:44.293Z,9.52
2022-10-14T05:54:44.229Z,9.48
2022-10-14T05:55:44.159Z,9.53
2022-10-14T05:56:44.098Z,9.52
2022-10-14T05:57:44.031Z,9.53
2022-10-14T05:58:43.967Z,9.67
2022-10-14T05:59:43.902Z,9.65
2022-10-14T06:00:43.839Z,9.52
2022-10-14T06:01:43.774Z,9.62
2022-10-14T06:02:43.757Z,9.59
2022-10-14T06:03:43.646Z,9.60
2022-10-14T06:04:43.581Z,9.71
2022-10-14T06:05:43.528Z,9.70
2022-10-14T06:06:43.448Z,9.70
2022-10-14T06:07:43.385Z,9.67
2022-10-14T06:08:43.359Z,9.70
2022-10-14T06:09:43.254Z,9.70
2022-10-14T06:10:43.194Z,9.71
2022-10-14T06:11:43.123Z,9.68
2022-10-14T06:12:43.065Z,9.80
2022-10-14T06:13:42.996Z,9.81
2022-10-14T06:14:42.929Z,9.80
2022-10-14T06:15:42.867Z,9.81
2022-10-14T06:16:42.817Z,9.91
2022-10-14T06:17:42.743Z,9.85
2022-10-14T06:18:42.672Z,9.81
2022-10-14T06:19:42.605Z,9.81
2022-10-14T06:20:42.540Z,9.86
2022-10-14T06:21:42.486Z,9.95
2022-10-14T06:22:42.436Z,9.89
2022-10-14T06:23:42.354Z,9.96
2022-10-14T06:24:42.295Z,9.96
2022-10-14T06:25:42.217Z,10.02
2022-10-14T06:26:42.175Z,10.04
2022-10-14T06:27:42.095Z,10.11
2022-10-14T06:28:42.112Z,10.02
2022-10-14T06:29:41.961Z,10.11
2022-10-14T06:30:41.895Z,10.11
2022-10-14T06:31:41.836Z,10.20
2022-10-14T06:32:41.765Z,10.24
2022-10-14T06:33:41.702Z,10.24
2022-10-14T06:34:41.636Z,10.34
2022-10-14T06:35:41.582Z,10.35
2022-10-14T06:36:41.509Z,10.31
2022-10-14T06:37:41.443Z,10.32
2022-10-14T06:38:41.379Z,10.47
2022-10-14T06:39:41.320Z,10.52
2022-10-14T06:40:41.251Z,10.51
2022-10-14T06:41:41.187Z,10.47
2022-10-14T06:42:41.124Z,10.57
2022-10-14T06:43:41.058Z,10.62
2022-10-14T06:44:40.993Z,10.62
2022-10-14T06:45:40.930Z,10.60
2022-10-14T06:46:40.865Z,10.70
2022-10-14T06:47:40.800Z,10.66
2022-10-14T06:48:40.735Z,10.62
2022-10-14T06:49:40.673Z,10.80
2022-10-14T06:50:40.609Z,10.75
2022-10-14T06:51:40.541Z,10.83
2022-10-14T06:52:40.483Z,10.86
2022-10-14T06:53:40.422Z,10.93
2022-10-14T06:54:41.741Z,10.95
2022-10-14T06:55:40.285Z,10.95
2022-10-14T06:56:40.224Z,10.95
2022-10-14T06:57:40.155Z,11.02
2022-10-14T06:58:40.093Z,11.02
2022-10-14T06:59:40.030Z,11.06
2022-10-14T07:00:42.224Z,11.09
2022-10-14T07:01:39.965Z,11.13
2022-10-14T07:02:39.839Z,11.19
2022-10-14T07:03:39.770Z,11.16
2022-10-14T07:04:39.709Z,11.31
2022-10-14T07:05:39.647Z,11.24
2022-10-14T07:06:39.581Z,11.36
2022-10-14T07:07:39.518Z,11.33
2022-10-14T07:08:39.453Z,11.41
2022-10-14T07:09:39.387Z,11.53
2022-10-14T07:10:39.330Z,11.62
2022-10-14T07:11:39.266Z,11.63
2022-10-14T07:12:39.196Z,11.77
2022-10-14T07:13:39.135Z,11.82
2022-10-14T07:14:39.073Z,11.81
2022-10-14T07:15:39.009Z,11.82
2022-10-14T07:16:38.945Z,11.96
2022-10-14T07:17:38.923Z,12.08
2022-10-14T07:18:38.813Z,11.94
2022-10-14T07:19:38.760Z,12.04
2022-10-14T07:20:38.696Z,12.03
2022-10-14T07:21:38.621Z,12.12
2022-10-14T07:22:39.226Z,12.13
2022-10-14T07:23:38.493Z,12.16
2022-10-14T07:24:38.431Z,12.23
2022-10-14T07:25:38.370Z,12.26
2022-10-14T07:26:38.307Z,12.25
2022-10-14T07:27:38.239Z,12.25
2022-10-14T07:28:38.212Z,12.18
2022-10-14T07:29:38.113Z,12.30
2022-10-14T07:30:38.053Z,12.33
2022-10-14T07:31:38.004Z,12.38
2022-10-14T07:32:37.934Z,12.31
2022-10-14T07:34:37.800Z,12.38
2022-10-14T07:35:37.746Z,12.43
2022-10-14T07:36:37.742Z,12.49
2022-10-14T07:37:37.606Z,12.54
2022-10-14T07:38:37.546Z,12.58
2022-10-14T07:39:37.480Z,12.55
2022-10-14T07:40:37.417Z,12.61
2022-10-14T07:41:37.351Z,12.69
2022-10-14T07:42:37.291Z,12.79
2022-10-14T07:43:37.239Z,12.71
2022-10-14T07:44:37.171Z,12.77
2022-10-14T07:45:37.098Z,12.88
2022-10-14T07:46:37.041Z,12.87
2022-10-14T07:47:36.994Z,12.92
2022-10-14T07:48:55.871Z,12.98
2022-10-14T07:49:36.845Z,12.91
2022-10-14T07:50:36.785Z,12.92
2022-10-14T07:51:36.725Z,12.91
2022-10-14T07:52:36.657Z,12.92
2022-10-14T07:53:36.594Z,12.92
2022-10-14T07:54:36.530Z,12.92
2022-10-14T07:55:36.467Z,12.92
2022-10-14T07:56:36.406Z,12.99
2022-10-14T07:57:36.344Z,13.12
2022-10-14T07:58:38.914Z,13.14
2022-10-14T07:59:36.214Z,13.16
2022-10-14T08:00:36.153Z,13.27
2022-10-14T08:01:36.170Z,13.41
2022-10-14T08:02:36.030Z,13.29
2022-10-14T08:03:35.962Z,13.51
2022-10-14T08:04:35.905Z,13.61
2022-10-14T08:05:38.632Z,13.73
2022-10-14T08:06:35.776Z,13.88
2022-10-14T08:07:35.715Z,13.98
2022-10-14T08:08:35.651Z,14.04
2022-10-14T08:09:35.601Z,14.20
2022-10-14T08:10:35.528Z,14.23
2022-10-14T08:11:35.464Z,14.39
2022-10-14T08:12:35.398Z,14.49
2022-10-14T08:13:35.358Z,14.60
2022-10-14T08:14:35.273Z,14.71
2022-10-14T08:15:35.214Z,14.64
2022-10-14T08:16:35.147Z,14.71
2022-10-14T08:17:35.113Z,14.98
2022-10-14T08:18:35.023Z,15.16
2022-10-14T08:19:34.960Z,15.30
2022-10-14T08:20:34.899Z,15.28
2022-10-14T08:21:34.835Z,15.51
2022-10-14T08:22:34.774Z,15.62
2022-10-14T08:23:34.719Z,15.77
2022-10-14T08:24:34.650Z,15.88
2022-10-14T08:25:34.590Z,16.30
2022-10-14T08:26:34.531Z,16.47
2022-10-14T08:27:34.463Z,16.78
2022-10-14T08:28:34.430Z,17.15
2022-10-14T08:29:34.373Z,17.94
2022-10-14T08:30:34.280Z,18.54
2022-10-14T08:31:34.217Z,18.65
2022-10-14T08:32:34.159Z,19.39
2022-10-14T08:33:34.109Z,20.04
2022-10-14T08:34:34.038Z,20.60
2022-10-14T08:35:33.973Z,21.09
2022-10-14T08:36:33.913Z,21.36
2022-10-14T08:37:33.851Z,21.82
2022-10-14T08:38:33.795Z,22.08
2022-10-14T08:39:33.731Z,22.24
2022-10-14T08:40:33.680Z,22.38
2022-10-14T08:41:33.611Z,22.42
2022-10-14T08:42:33.553Z,22.46
2022-10-14T08:43:33.498Z,22.75
2022-10-14T08:44:33.435Z,22.11
2022-10-14T08:45:33.378Z,21.66
2022-10-14T08:46:33.318Z,21.06
2022-10-14T08:47:33.269Z,20.96
2022-10-14T08:48:33.205Z,20.50
2022-10-14T08:49:33.145Z,20.10
2022-10-14T08:50:33.086Z,19.76
2022-10-14T08:51:33.031Z,20.07
2022-10-14T08:52:37.239Z,20.15
2022-10-14T08:53:32.911Z,19.86
2022-10-14T08:54:32.869Z,19.50
2022-10-14T08:55:32.794Z,19.38
2022-10-14T08:56:32.738Z,19.28
2022-10-14T08:57:32.679Z,19.28
2022-10-14T08:58:32.626Z,19.28
2022-10-14T08:59:32.570Z,19.39
2022-10-14T09:00:32.507Z,19.55
2022-10-14T09:01:32.448Z,19.61
2022-10-14T09:02:32.388Z,19.67
2022-10-14T09:03:32.346Z,20.04
2022-10-14T09:04:32.336Z,20.57
2022-10-14T09:05:32.211Z,20.79
2022-10-14T09:06:32.157Z,20.91
2022-10-14T09:07:32.106Z,21.06
2022-10-14T09:08:32.042Z,21.27
2022-10-14T09:09:31.978Z,21.34
2022-10-14T09:10:31.923Z,21.31
2022-10-14T09:11:34.285Z,21.03
2022-10-14T09:12:31.809Z,20.90
2022-10-14T09:13:31.750Z,20.76
2022-10-14T09:14:31.736Z,20.81
2022-10-14T09:15:31.633Z,20.63
2022-10-14T09:16:31.570Z,20.58
2022-10-14T09:17:34.063Z,20.58
2022-10-14T09:18:31.465Z,20.51
2022-10-14T09:19:31.397Z,20.61
2022-10-14T09:20:31.338Z,20.66
2022-10-14T09:21:51.538Z,21.09
2022-10-14T09:22:31.218Z,21.71
2022-10-14T09:23:31.176Z,22.17
2022-10-14T09:24:31.102Z,22.85
2022-10-14T09:25:31.045Z,23.19
2022-10-14T09:26:30.992Z,23.47
2022-10-14T09:27:30.943Z,24.05
2022-10-14T09:28:30.930Z,24.55
2022-10-14T09:29:30.812Z,24.60
2022-10-14T09:30:30.757Z,24.77
2022-10-14T09:31:30.751Z,24.99
2022-10-14T09:32:30.642Z,25.01
2022-10-14T09:33:30.583Z,25.31
2022-10-14T09:34:30.539Z,25.22
2022-10-14T09:35:30.470Z,24.99
2022-10-14T09:36:30.413Z,24.86
2022-10-14T09:37:30.359Z,24.99
2022-10-14T09:38:30.305Z,25.11
2022-10-14T09:39:30.250Z,25.60
2022-10-14T09:40:30.193Z,25.85
2022-10-14T09:41:30.134Z,26.09
2022-10-14T09:42:30.085Z,26.42
2022-10-14T09:43:30.132Z,26.31
2022-10-14T09:44:29.967Z,26.66
2022-10-14T09:45:29.908Z,27.05
2022-10-14T09:46:29.851Z,26.81
2022-10-14T09:47:29.795Z,26.79
2022-10-14T09:48:29.746Z,26.84
2022-10-14T09:49:29.689Z,26.88
2022-10-14T09:50:29.630Z,27.13
2022-10-14T09:51:29.576Z,26.66
2022-10-14T09:52:29.521Z,26.50
2022-10-14T09:53:29.475Z,26.13
2022-10-14T09:54:29.411Z,25.69
2022-10-14T09:55:29.364Z,25.01
2022-10-14T09:56:29.304Z,24.36
2022-10-14T09:57:29.244Z,23.54
2022-10-14T09:58:29.197Z,23.23
2022-10-14T09:59:29.136Z,22.63
2022-10-14T10:00:29.094Z,22.42
2022-10-14T10:01:29.046Z,22.45
2022-10-14T10:02:28.973Z,22.67
2022-10-14T10:03:28.914Z,23.25
2022-10-14T10:04:28.859Z,24.05
2022-10-14T10:05:28.806Z,24.49
2022-10-14T10:06:28.750Z,24.74
2022-10-14T10:07:28.693Z,24.45
2022-10-14T10:08:28.647Z,24.31
2022-10-14T10:09:28.580Z,24.19
2022-10-14T10:10:28.530Z,23.60
2022-10-14T10:11:28.479Z,23.25
2022-10-14T10:12:28.415Z,23.04
2022-10-14T10:13:28.365Z,22.49
2022-10-14T10:14:28.308Z,22.19
2022-10-14T10:15:28.250Z,22.31
2022-10-14T10:16:28.197Z,22.44
2022-10-14T10:17:28.147Z,22.51
2022-10-14T10:18:28.087Z,22.49
2022-10-14T10:19:28.034Z,21.46
2022-10-14T10:20:27.973Z,19.82
2022-10-14T10:21:27.919Z,20.02
2022-10-14T10:22:27.872Z,20.05
2022-10-14T10:23:27.804Z,20.22
2022-10-14T10:24:30.863Z,20.57
2022-10-14T10:25:27.691Z,20.20
2022-10-14T10:26:27.636Z,20.60
2022-10-14T10:27:27.578Z,20.53
2022-10-14T10:28:27.593Z,20.60
2022-10-14T10:29:27.464Z,20.76
2022-10-14T10:30:27.433Z,20.96
2022-10-14T10:31:27.558Z,21.03
2022-10-14T10:32:27.308Z,20.83
2022-10-14T10:33:27.254Z,20.75
2022-10-14T10:34:27.183Z,20.83
2022-10-14T10:35:27.129Z,20.82
2022-10-14T10:36:27.073Z,20.93
2022-10-14T10:37:27.018Z,20.85
2022-10-14T10:38:26.967Z,20.93
2022-10-14T10:39:26.905Z,21.00
2022-10-14T10:40:26.844Z,20.91
2022-10-14T10:41:26.782Z,20.53
2022-10-14T10:42:26.725Z,20.63
2022-10-14T10:43:26.668Z,20.81
2022-10-14T10:44:26.611Z,20.93
2022-10-14T10:45:26.553Z,20.87
2022-10-14T10:46:26.499Z,21.15
2022-10-14T10:47:26.438Z,21.22
2022-10-14T10:48:26.385Z,21.38
2022-10-14T10:49:26.326Z,21.40
2022-10-14T10:50:26.268Z,21.71
2022-10-14T10:51:26.208Z,21.74
2022-10-14T10:52:26.449Z,21.70
2022-10-14T10:53:26.093Z,21.08
2022-10-14T10:54:26.035Z,21.03
2022-10-14T10:55:25.976Z,20.88
2022-10-14T10:56:25.926Z,20.76
2022-10-14T10:57:25.862Z,20.76
2022-10-14T10:58:25.805Z,20.61
2022-10-14T10:59:25.749Z,20.68
2022-10-14T11:01:25.678Z,20.66
2022-10-14T11:02:25.571Z,20.56
2022-10-14T11:03:25.528Z,20.50
2022-10-14T11:04:25.479Z,20.46
2022-10-14T11:05:25.396Z,20.31
2022-10-14T11:06:25.348Z,20.34
2022-10-14T11:07:27.870Z,20.38
2022-10-14T11:08:25.255Z,20.04
2022-10-14T11:09:25.164Z,20.04
2022-10-14T11:10:25.110Z,20.05
2022-10-14T11:11:25.053Z,20.00
2022-10-14T11:12:25.205Z,20.01
2022-10-14T11:13:27.236Z,19.97
2022-10-14T11:14:24.872Z,19.97
2022-10-14T11:15:24.815Z,19.82
2022-10-14T11:16:24.754Z,19.89
2022-10-14T11:17:25.036Z,19.86
2022-10-14T11:18:24.637Z,19.92
2022-10-14T11:19:24.579Z,20.05
2022-10-14T11:20:24.520Z,20.13
2022-10-14T11:21:24.459Z,20.15
2022-10-14T11:22:24.870Z,20.07
2022-10-14T11:23:24.342Z,20.02
2022-10-14T11:24:24.292Z,19.90
2022-10-14T11:25:24.231Z,20.05
2022-10-14T11:26:24.247Z,19.97
2022-10-14T11:27:25.015Z,20.01
2022-10-14T11:28:24.092Z,20.00
2022-10-14T11:29:23.994Z,19.83
2022-10-14T11:30:23.941Z,19.76
2022-10-14T11:31:23.873Z,20.01
2022-10-14T11:32:23.836Z,20.12
2022-10-14T11:33:23.761Z,20.10
2022-10-14T11:34:23.724Z,20.07
2022-10-14T11:35:23.723Z,20.01
2022-10-14T11:36:23.578Z,19.97
2022-10-14T11:37:23.721Z,20.00
2022-10-14T11:38:23.498Z,20.07
2022-10-14T11:39:23.402Z,20.22
2022-10-14T11:40:23.343Z,19.80
2022-10-14T11:41:23.281Z,19.64
2022-10-14T11:42:23.564Z,19.75
2022-10-14T11:43:23.164Z,19.75
2022-10-14T11:44:23.131Z,19.70
2022-10-14T11:45:23.062Z,19.52
2022-10-14T11:46:22.989Z,19.60
2022-10-14T11:47:23.198Z,19.64
2022-10-14T11:48:22.868Z,19.79
2022-10-14T11:49:22.810Z,19.85
2022-10-14T11:50:22.751Z,19.95
2022-10-14T11:51:22.692Z,20.02
2022-10-14T11:52:22.632Z,19.95
2022-10-14T11:53:22.591Z,19.87
2022-10-14T11:54:22.513Z,19.80
2022-10-14T11:55:22.459Z,19.98
2022-10-14T11:56:22.400Z,20.04
2022-10-14T11:57:22.574Z,19.82
2022-10-14T11:58:22.281Z,19.92
2022-10-14T11:59:22.215Z,19.90
2022-10-14T12:00:22.279Z,19.95
2022-10-14T12:01:22.100Z,19.90
2022-10-14T12:02:22.509Z,19.82
2022-10-14T12:03:21.980Z,19.27
2022-10-14T12:04:21.927Z,19.21
2022-10-14T12:05:21.859Z,19.21
2022-10-14T12:06:21.817Z,19.13
2022-10-14T12:07:21.741Z,19.01
2022-10-14T12:08:21.685Z,18.91
2022-10-14T12:09:21.623Z,18.91
2022-10-14T12:10:21.568Z,18.91
2022-10-14T12:11:21.513Z,18.99
2022-10-14T12:12:21.772Z,19.07
2022-10-14T12:13:21.385Z,19.10
2022-10-14T12:14:21.326Z,19.21
2022-10-14T12:15:21.298Z,19.20
2022-10-14T12:16:21.209Z,19.17
2022-10-14T12:17:21.682Z,19.23
2022-10-14T12:18:21.088Z,19.25
2022-10-14T12:19:21.026Z,19.25
2022-10-14T12:20:20.967Z,19.21
2022-10-14T12:21:20.905Z,19.25
2022-10-14T12:22:21.122Z,19.28
2022-10-14T12:23:20.795Z,19.13
2022-10-14T12:24:20.744Z,19.21
2022-10-14T12:25:20.669Z,19.30
2022-10-14T12:26:20.609Z,19.35
2022-10-14T12:27:20.567Z,19.30
2022-10-14T12:28:20.538Z,19.32
2022-10-14T12:29:20.428Z,19.39
2022-10-14T12:30:20.370Z,19.27
2022-10-14T12:31:20.319Z,19.39
2022-10-14T12:32:20.664Z,19.39
2022-10-14T12:33:22.835Z,19.39
2022-10-14T12:34:20.130Z,19.40
2022-10-14T12:35:20.069Z,19.17
2022-10-14T12:36:20.011Z,19.01
2022-10-14T12:37:20.333Z,19.01
2022-10-14T12:38:19.891Z,19.09
2022-10-14T12:39:19.831Z,19.23
2022-10-14T12:40:19.775Z,19.15
2022-10-14T12:41:19.709Z,19.31
2022-10-14T12:42:19.987Z,19.39
2022-10-14T12:43:19.602Z,19.60
2022-10-14T12:44:19.540Z,19.65
2022-10-14T12:45:19.475Z,19.82
2022-10-14T12:46:19.412Z,19.83
2022-10-14T12:47:19.626Z,19.72
2022-10-14T12:48:19.301Z,19.75
2022-10-14T12:49:19.232Z,19.75
2022-10-14T12:50:19.181Z,19.71
2022-10-14T12:51:19.113Z,19.65
2022-10-14T12:52:19.057Z,19.61
2022-10-14T12:53:18.993Z,19.70
2022-10-14T12:54:18.934Z,19.34
2022-10-14T12:55:18.875Z,19.23
2022-10-14T12:56:18.814Z,19.17
2022-10-14T12:57:18.799Z,18.94
2022-10-14T12:58:18.697Z,18.89
2022-10-14T12:59:18.636Z,18.99
2022-10-14T13:00:18.578Z,19.07
2022-10-14T13:01:18.720Z,19.16
2022-10-14T13:02:18.457Z,19.21
2022-10-14T13:03:18.444Z,19.38
2022-10-14T13:04:20.049Z,19.43
2022-10-14T13:05:18.291Z,19.50
2022-10-14T13:06:18.219Z,19.50